Time,TemperatureF,DewpointF,PressureIn,WindDirection,WindDirectionDegrees,WindSpeedMPH,WindSpeedGustMPH,Humidity,HourlyPrecipIn,Conditions,Clouds,dailyrainin,SoftwareType,DateUTC
2013-04-08 00:00:00,52.7,44.3,29.93,West,270,0.0,-999.0,73,-99.99,,,0.00,Acu-Link.com,2013-04-08 04:00:00,
2013-04-08 00:15:00,52.7,45.0,29.93,NNW,337,0.0,-999.0,75,-99.99,,,0.00,Acu-Link.com,2013-04-08 04:15:00,
2013-04-08 00:30:00,52.5,44.8,29.93,SSE,157,0.0,-999.0,75,-99.99,,,0.00,Acu-Link.com,2013-04-08 04:30:00,
2013-04-08 00:45:00,52.5,45.5,29.94,WSW,247,2.7,-999.0,77,-99.99,,,0.00,Acu-Link.com,2013-04-08 04:45:00,
2013-04-08 01:00:00,51.6,45.0,29.94,SSE,157,2.2,-999.0,78,-99.99,,,0.00,Acu-Link.com,2013-04-08 05:00:00,
2013-04-08 01:16:00,51.3,44.6,29.93,West,270,1.6,-999.0,78,-99.99,,,0.00,Acu-Link.com,2013-04-08 05:16:00,
2013-04-08 01:46:00,51.1,44.8,29.93,WSW,247,1.6,-999.0,79,-99.99,,,0.00,Acu-Link.com,2013-04-08 05:46:00,
2013-04-08 02:01:00,50.5,44.9,29.93,SW,225,1.6,-999.0,81,-99.99,,,0.00,Acu-Link.com,2013-04-08 06:01:00,
2013-04-08 02:16:00,50.5,44.9,29.92,South,180,2.2,-999.0,81,-99.99,,,0.00,Acu-Link.com,2013-04-08 06:16:00,
2013-04-08 02:32:00,50.5,45.3,29.91,WNW,292,0.0,-999.0,82,-99.99,,,0.00,Acu-Link.com,2013-04-08 06:32:00,
2013-04-08 02:47:00,50.5,45.3,29.91,South,180,1.6,-999.0,82,-99.99,,,0.00,Acu-Link.com,2013-04-08 06:47:00,
2013-04-08 03:02:00,50.0,45.0,29.91,West,270,0.0,-999.0,83,-99.99,,,0.00,Acu-Link.com,2013-04-08 07:02:00,
2013-04-08 03:17:00,49.6,45.0,29.90,WNW,292,0.0,-999.0,84,-99.99,,,0.00,Acu-Link.com,2013-04-08 07:17:00,
2013-04-08 03:32:00,49.5,45.1,29.91,ESE,112,0.0,-999.0,85,-99.99,,,0.00,Acu-Link.com,2013-04-08 07:32:00,
2013-04-08 03:48:00,49.6,45.3,29.91,South,180,0.0,-999.0,85,-99.99,,,0.00,Acu-Link.com,2013-04-08 07:48:00,
2013-04-08 04:03:00,49.8,45.5,29.91,ESE,112,0.0,-999.0,85,-99.99,,,0.00,Acu-Link.com,2013-04-08 08:03:00,
2013-04-08 04:18:00,49.8,45.5,29.91,West,270,2.2,-999.0,85,-99.99,,,0.00,Acu-Link.com,2013-04-08 08:18:00,
2013-04-08 04:33:00,50.4,46.0,29.91,ESE,112,0.0,-999.0,85,-99.99,,,0.00,Acu-Link.com,2013-04-08 08:33:00,
2013-04-08 04:48:00,50.7,46.4,29.91,SSW,202,0.0,-999.0,85,-99.99,,,0.00,Acu-Link.com,2013-04-08 08:48:00,
2013-04-08 05:03:00,50.7,46.4,29.91,SW,225,0.0,-999.0,85,-99.99,,,0.00,Acu-Link.com,2013-04-08 09:03:00,
2013-04-08 05:18:00,50.7,46.4,29.91,WSW,247,0.0,-999.0,85,-99.99,,,0.00,Acu-Link.com,2013-04-08 09:18:00,
2013-04-08 05:49:00,50.9,46.9,29.91,WSW,247,1.1,-999.0,86,-99.99,,,0.00,Acu-Link.com,2013-04-08 09:49:00,
2013-04-08 06:04:00,50.0,46.3,29.91,West,270,2.7,-999.0,87,-99.99,,,0.00,Acu-Link.com,2013-04-08 10:04:00,
2013-04-08 06:19:00,49.6,46.2,29.91,SW,225,0.0,-999.0,88,-99.99,,,0.00,Acu-Link.com,2013-04-08 10:19:00,
2013-04-08 06:34:00,50.2,46.5,29.91,South,180,2.2,-999.0,87,-99.99,,,0.00,Acu-Link.com,2013-04-08 10:34:00,
2013-04-08 06:50:00,50.0,46.6,29.92,SW,225,1.6,-999.0,88,-99.99,,,0.00,Acu-Link.com,2013-04-08 10:50:00,
2013-04-08 07:05:00,50.9,47.8,29.93,NW,315,3.1,-999.0,89,-99.99,,,0.00,Acu-Link.com,2013-04-08 11:05:00,
2013-04-08 07:35:00,51.3,48.1,29.94,NNE,22,0.0,-999.0,89,-99.99,,,0.00,Acu-Link.com,2013-04-08 11:35:00,
2013-04-08 07:50:00,51.6,48.5,29.95,SE,135,0.0,-999.0,89,-99.99,,,0.00,Acu-Link.com,2013-04-08 11:50:00,
2013-04-08 08:06:00,53.8,49.4,29.96,ESE,112,0.0,-999.0,85,-99.99,,,0.00,Acu-Link.com,2013-04-08 12:06:00,
2013-04-08 08:21:00,57.7,50.9,29.96,East,90,0.0,-999.0,78,-99.99,,,0.00,Acu-Link.com,2013-04-08 12:21:00,
2013-04-08 08:36:00,61.2,51.3,29.96,ENE,67,1.6,-999.0,70,-99.99,,,0.00,Acu-Link.com,2013-04-08 12:36:00,
2013-04-08 08:51:00,60.8,51.3,29.97,South,180,0.0,-999.0,71,-99.99,,,0.00,Acu-Link.com,2013-04-08 12:51:00,
2013-04-08 09:06:00,60.8,51.0,29.97,ESE,112,0.0,-999.0,70,-99.99,,,0.00,Acu-Link.com,2013-04-08 13:06:00,
2013-04-08 09:22:00,66.2,52.3,29.97,NNW,337,0.0,-999.0,61,-99.99,,,0.00,Acu-Link.com,2013-04-08 13:22:00,
2013-04-08 09:37:00,62.4,51.7,29.96,NW,315,2.2,-999.0,68,-99.99,,,0.00,Acu-Link.com,2013-04-08 13:37:00,
2013-04-08 09:52:00,64.8,52.7,29.95,ESE,112,2.2,-999.0,65,-99.99,,,0.00,Acu-Link.com,2013-04-08 13:52:00,
2013-04-08 10:07:00,65.8,52.0,29.95,East,90,5.8,-999.0,61,-99.99,,,0.00,Acu-Link.com,2013-04-08 14:07:00,
2013-04-08 10:22:00,68.2,52.4,29.95,SE,135,1.6,-999.0,57,-99.99,,,0.00,Acu-Link.com,2013-04-08 14:22:00,
2013-04-08 10:38:00,68.2,50.4,29.95,SSW,202,1.6,-999.0,53,-99.99,,,0.00,Acu-Link.com,2013-04-08 14:38:00,
2013-04-08 10:53:00,70.3,51.3,29.96,SW,225,3.1,-999.0,51,-99.99,,,0.00,Acu-Link.com,2013-04-08 14:53:00,
2013-04-08 11:08:00,71.1,50.4,29.96,SSW,202,4.7,-999.0,48,-99.99,,,0.00,Acu-Link.com,2013-04-08 15:08:00,
2013-04-08 11:23:00,71.4,51.8,29.96,SSW,202,4.7,-999.0,50,-99.99,,,0.00,Acu-Link.com,2013-04-08 15:23:00,
2013-04-08 12:09:00,70.7,49.5,29.97,South,180,0.0,-999.0,47,-99.99,,,0.00,Acu-Link.com,2013-04-08 16:09:00,
2013-04-08 12:24:00,69.3,50.9,29.96,ENE,67,1.6,-999.0,52,-99.99,,,0.00,Acu-Link.com,2013-04-08 16:24:00,
2013-04-08 12:39:00,73.9,51.2,29.97,East,90,2.7,-999.0,45,-99.99,,,0.00,Acu-Link.com,2013-04-08 16:39:00,
2013-04-08 12:54:00,71.4,51.8,29.97,South,180,1.1,-999.0,50,-99.99,,,0.00,Acu-Link.com,2013-04-08 16:54:00,
2013-04-08 13:10:00,68.7,49.3,29.96,South,180,1.6,-999.0,50,-99.99,,,0.00,Acu-Link.com,2013-04-08 17:10:00,
2013-04-08 13:25:00,71.4,51.3,29.96,West,270,1.6,-999.0,49,-99.99,,,0.00,Acu-Link.com,2013-04-08 17:25:00,
2013-04-08 13:40:00,71.4,50.1,29.95,SSE,157,2.7,-999.0,47,-99.99,,,0.00,Acu-Link.com,2013-04-08 17:40:00,
2013-04-08 13:55:00,72.0,51.2,29.94,North,0,2.7,-999.0,48,-99.99,,,0.00,Acu-Link.com,2013-04-08 17:55:00,
2013-04-08 14:11:00,72.9,50.9,29.94,East,90,2.7,-999.0,46,-99.99,,,0.00,Acu-Link.com,2013-04-08 18:11:00,
2013-04-08 14:56:00,71.2,48.8,29.93,West,270,1.6,-999.0,45,-99.99,,,0.00,Acu-Link.com,2013-04-08 18:56:00,
2013-04-08 15:11:00,70.5,51.0,29.92,ENE,67,3.8,-999.0,50,-99.99,,,0.00,Acu-Link.com,2013-04-08 19:11:00,
2013-04-08 15:42:00,72.1,50.2,29.91,SSW,202,2.7,-999.0,46,-99.99,,,0.00,Acu-Link.com,2013-04-08 19:42:00,
2013-04-08 15:57:00,72.9,50.3,29.90,NNE,22,3.8,-999.0,45,-99.99,,,0.00,Acu-Link.com,2013-04-08 19:57:00,
2013-04-08 16:12:00,71.4,50.7,29.90,NE,45,2.7,-999.0,48,-99.99,,,0.00,Acu-Link.com,2013-04-08 20:12:00,
2013-04-08 16:27:00,74.1,50.8,29.90,South,180,2.7,-999.0,44,-99.99,,,0.00,Acu-Link.com,2013-04-08 20:27:00,
2013-04-08 16:43:00,71.4,50.7,29.90,SW,225,2.7,-999.0,48,-99.99,,,0.00,Acu-Link.com,2013-04-08 20:43:00,
2013-04-08 16:58:00,72.3,50.4,29.90,ENE,67,0.0,-999.0,46,-99.99,,,0.00,Acu-Link.com,2013-04-08 20:58:00,
2013-04-08 17:13:00,73.8,51.1,29.89,South,180,2.7,-999.0,45,-99.99,,,0.00,Acu-Link.com,2013-04-08 21:13:00,
2013-04-08 17:28:00,73.9,50.6,29.89,SSW,202,3.1,-999.0,44,-99.99,,,0.00,Acu-Link.com,2013-04-08 21:28:00,
2013-04-08 17:44:00,72.5,49.9,29.90,South,180,0.0,-999.0,45,-99.99,,,0.00,Acu-Link.com,2013-04-08 21:44:00,
2013-04-08 17:59:00,73.6,50.3,29.90,WNW,292,1.6,-999.0,44,-99.99,,,0.00,Acu-Link.com,2013-04-08 21:59:00,
2013-04-08 18:29:00,72.1,49.0,29.90,South,180,0.0,-999.0,44,-99.99,,,0.00,Acu-Link.com,2013-04-08 22:29:00,
2013-04-08 18:44:00,70.7,50.6,29.90,West,270,0.0,-999.0,49,-99.99,,,0.00,Acu-Link.com,2013-04-08 22:44:00,
2013-04-08 19:00:00,70.3,50.3,29.90,WNW,292,0.0,-999.0,49,-99.99,,,0.00,Acu-Link.com,2013-04-08 23:00:00,
2013-04-08 19:15:00,68.5,49.7,29.90,West,270,2.2,-999.0,51,-99.99,,,0.00,Acu-Link.com,2013-04-08 23:15:00,
2013-04-08 19:30:00,67.5,49.7,29.90,West,270,1.6,-999.0,53,-99.99,,,0.00,Acu-Link.com,2013-04-08 23:30:00,
2013-04-08 19:45:00,66.6,49.9,29.90,West,270,2.7,-999.0,55,-99.99,,,0.00,Acu-Link.com,2013-04-08 23:45:00,
2013-04-08 20:01:00,65.3,49.7,29.91,West,270,2.7,-999.0,57,-99.99,,,0.00,Acu-Link.com,2013-04-09 00:01:00,
2013-04-08 20:31:00,63.1,50.3,29.92,WSW,247,0.0,-999.0,63,-99.99,,,0.00,Acu-Link.com,2013-04-09 00:31:00,
2013-04-08 20:46:00,62.1,50.2,29.91,West,270,0.0,-999.0,65,-99.99,,,0.00,Acu-Link.com,2013-04-09 00:46:00,
2013-04-08 21:02:00,61.3,50.3,29.92,West,270,0.0,-999.0,67,-99.99,,,0.00,Acu-Link.com,2013-04-09 01:02:00,
2013-04-08 21:17:00,60.8,49.8,29.92,SW,225,1.6,-999.0,67,-99.99,,,0.00,Acu-Link.com,2013-04-09 01:17:00,
2013-04-08 21:32:00,60.3,50.0,29.92,WNW,292,0.0,-999.0,69,-99.99,,,0.00,Acu-Link.com,2013-04-09 01:32:00,
2013-04-08 21:47:00,59.4,50.3,29.93,SW,225,0.0,-999.0,72,-99.99,,,0.00,Acu-Link.com,2013-04-09 01:47:00,
2013-04-08 22:02:00,58.8,49.8,29.94,SSW,202,0.0,-999.0,72,-99.99,,,0.00,Acu-Link.com,2013-04-09 02:02:00,
2013-04-08 22:18:00,58.3,50.0,29.94,SW,225,0.0,-999.0,74,-99.99,,,0.00,Acu-Link.com,2013-04-09 02:18:00,
2013-04-08 22:33:00,57.7,49.9,29.94,WSW,247,0.0,-999.0,75,-99.99,,,0.00,Acu-Link.com,2013-04-09 02:33:00,
2013-04-08 22:48:00,57.6,50.1,29.94,South,180,0.0,-999.0,76,-99.99,,,0.00,Acu-Link.com,2013-04-09 02:48:00,
2013-04-08 23:03:00,56.7,49.9,29.94,WSW,247,0.0,-999.0,78,-99.99,,,0.00,Acu-Link.com,2013-04-09 03:03:00,
2013-04-08 23:18:00,56.3,49.9,29.94,SW,225,0.0,-999.0,79,-99.99,,,0.00,Acu-Link.com,2013-04-09 03:18:00,
2013-04-08 23:49:00,56.7,50.6,29.94,West,270,0.0,-999.0,80,-99.99,,,0.00,Acu-Link.com,2013-04-09 03:49:00,